AirNav   Pilot Hours Calculator
 
 1122 users online  

3K8 Comanche County Airport
Coldwater, Kansas, USA

GOING TO COLDWATER?


FAA INFORMATION EFFECTIVE 05 DECEMBER 2019

Location

FAA Identifier: 3K8
Lat/Long: 37-13-22.3000N 099-19-55.3000W
37-13.371667N 099-19.921667W
37.2228611,-99.3320278
(estimated)
Elevation: 2086.1 ft. / 635.8 m (surveyed)
Variation: 05E (2020)
From city: 3 miles S of COLDWATER, KS
Time zone: UTC -6 (UTC -5 during Daylight Saving Time)
Zip code: 67029

Airport Operations

Airport use: Open to the public
Activation date: 03/1983
Control tower: no
ARTCC: KANSAS CITY CENTER
FSS: WICHITA FLIGHT SERVICE STATION
NOTAMs facility: ICT (NOTAM-D service available)
Attendance: UNATNDD
Wind indicator: lighted
Segmented circle: no
Lights: ACTIVATE REIL RY 17/35; PAPI RY 17/35; MIRL RY 17/35 - CTAF.
Beacon: white-green (lighted land airport)
Operates sunset to sunrise.

Airport Communications

CTAF: 122.9
WX AWOS-3PT: 118.05 (620-582-5988)
  • APCH/DEP SVC PRVDD BY KANSAS CITY ARTCC (ZKC) 126.95/379.2 (GAGE RCAG).

Airport Services

Fuel available: 100LL
FOR FUEL CALL (620) 546-5209 OR SHERIFF 620-582-2511.
Parking: tiedowns

Runway Information

Runway 17/35

Dimensions: 4500 x 60 ft. / 1372 x 18 m
Surface: concrete, in excellent condition
Runway edge lights: medium intensity
Gradient: N
RUNWAY 17  RUNWAY 35
Latitude: 37-13.740987N37-13.001978N
Longitude: 099-19.960242W099-19.884098W
Elevation: 2086.1 ft.2074.2 ft.
Traffic pattern: leftleft
Markings: nonprecision, in good conditionnonprecision, in good condition
Visual slope indicator: 4-light PAPI on left (3.00 degrees glide path)4-light PAPI on left (3.00 degrees glide path)
Runway end identifier lights: yesyes
Touchdown point: yes, no lightsyes, no lights

Airport Ownership and Management from official FAA records

Ownership: Publicly-owned
Owner: DENNIS HERNANDEZ
C/O COUNTY CLERK, 401 S. PHILADELPHIA AVE.
COLDWATER, KS 67029
Phone 620-582-2933
Manager: DENNIS HERNANDEZ
401 S. PHILADELPHIA AVE., PO BOX 685
COLDWATER, KS 67029
Phone (620) 582-2933
AFTER HOURS AND FOR FUEL PHONE NUMBERS LISTED IN PILOT LOUNGE.

Airport Operational Statistics

Aircraft based on the field: 3
Single engine airplanes: 3
    
Aircraft operations: avg 67/month *
50% transient general aviation
50% local general aviation
* for 12-month period ending 28 July 2017

Additional Remarks

FOR CD CTC KANSAS CITY ARTCC AT 913-254-8508.

Instrument Procedures

NOTE: All procedures below are presented as PDF files. If you need a reader for these files, you should download the free Adobe Reader.

NOT FOR NAVIGATION. Please procure official charts for flight.
FAA instrument procedures published for use from 05 December 2019 at 0900Z to 02 January 2020 at 0900Z.

 
IAPs - Instrument Approach Procedures
RNAV (GPS) RWY 17   download (205KB)
RNAV (GPS) RWY 35   download (223KB)
NOTE: Special Alternate Minimums apply   download (56KB)
NOTE: Special Take-Off Minimums/Departure Procedures apply   download (187KB)

Other nearby airports with instrument procedures:

KBFK - Buffalo Municipal Airport (26 nm SW)
KPTT - Pratt Regional Airport (40 nm NE)
KAVK - Alva Regional Airport (42 nm SE)
KDDC - Dodge City Regional Airport (44 nm NW)
KMDF - Mooreland Municipal Airport (45 nm S)
 
Loc | Ops | Rwys | IFR | FBO | Links
Com | Nav | Svcs | Stats | Notes

Kansas City Aviation Department
 
Area around 3K8 (Comanche County Airport)
 
Road maps at: MapQuest Bing Google
 
Aerial photo
WARNING: Photo may not be current or correct
Aerial photo of 3K8 (Comanche County Airport)
Photo taken 03-Sep-2010
looking northwest.

Do you have a better or more recent aerial photo of Comanche County Airport that you would like to share? If so, please send us your photo.

 
Sectional chart

 
Airport distance calculator
Flying to Comanche County Airport? Find the distance to fly.

From to 3K8

Sunrise and sunset
Times for 08-Dec-2019
 Local
(UTC-6)
 Zulu
(UTC)
Morning civil twilight07:1113:11
Sunrise07:4013:40
Sunset17:1923:19
Evening civil twilight17:4823:48

Current date and time
Zulu (UTC)  09-Dec-2019 03:09:30
Local (UTC-6)  08-Dec-2019 21:09:30
 
METAR
KP28 
38nm E 
090256Z AUTO 00000KT 03/02 A2962 RMK AO1 SLP040 T00280017 58017
KWWR 
38nm S 
090255Z AUTO 14005KT 10SM CLR 05/02 A2966 RMK AO2
KPTT 
40nm NE 
090255Z AUTO 00000KT 10SM CLR 05/01 A2962 RMK AO2 T00490014
KAVK 
42nm SE 
090255Z AUTO 00000KT 10SM CLR 04/03 A2963 RMK AO2
KDDC 
44nm NW 
090252Z AUTO 13005KT 10SM CLR 06/M02 A2961 RMK AO2 SLP028 T00561017 58017
TAF
KWWR 
38nm S 
081724Z 0818/0918 27008KT P6SM SCT150 BKN250 FM090800 26009KT P6SM BKN250 FM091200 31010KT P6SM SCT250 FM091500 34017KT P6SM OVC015
KDDC 
44nm NW 
081720Z 0818/0918 VRB04KT P6SM BKN250 FM091200 35020G28KT P6SM BKN120
NOTAMs
Click for the latest NOTAMs
NOTAMs are issued by the DoD/FAA and will open in a separate window not controlled by AirNav.

 

 
 

FBO, Fuel Providers, and Aircraft Ground Support

  
 Business Name 
 
 Contact 
 
 Services / Description 
 
Fuel Prices
 
Comments
  
Comanche County Airport 620-622-7460
no information available

If you are affiliated with Comanche County Airport and would like to show here your services, contact info, web link, logo, and more, click here
100LL
PS $4.58 
 Updated 04-Nov-2019
 
   write
PS=Pump service
Update Fuel Prices
 

Would you like to see your business listed on this page?

 If your business provides an interesting product or service to pilots, flight crews, aircraft, or users of the Comanche County Airport, you should consider listing it here.  To start the listing process, click on the button below
 
Add a business
 

Other Pages about Comanche County Airport

www.comanchecounty.com/location.htm
Mid Air Collision Avoidance Chart
 
Update a link
 
Copyright © AirNav, LLC. All rights reserved. Privacy Policy  Contact